createdAt,value
2018-11-01T00:02:24.779Z,70.66
2018-11-01T00:04:53.385Z,70.39
2018-11-01T00:07:22.020Z,70.61
2018-11-01T00:09:50.612Z,70.57
2018-11-01T00:12:19.241Z,71.14
2018-11-01T00:14:47.896Z,71.19
2018-11-01T00:17:16.584Z,71.65
2018-11-01T00:19:45.184Z,72.11
2018-11-01T00:22:13.979Z,72.76
2018-11-01T00:24:42.753Z,73.55
2018-11-01T00:27:11.390Z,73.96
2018-11-01T00:29:40.015Z,74.04
2018-11-01T00:32:09.091Z,74.80
2018-11-01T00:34:37.705Z,74.67
2018-11-01T00:37:06.495Z,74.35
2018-11-01T00:39:35.155Z,74.64
2018-11-01T00:42:03.772Z,74.62
2018-11-01T00:44:32.409Z,74.43
2018-11-01T00:47:01.035Z,74.91
2018-11-01T00:49:29.768Z,73.63
2018-11-01T00:51:58.435Z,74.03
2018-11-01T00:54:27.057Z,74.27
2018-11-01T00:56:55.697Z,74.74
2018-11-01T00:59:24.306Z,74.78
2018-11-01T01:01:52.917Z,75.44
2018-11-01T01:04:21.555Z,75.70
2018-11-01T01:06:50.221Z,75.25
2018-11-01T01:09:18.976Z,75.80
2018-11-01T01:11:47.605Z,76.09
2018-11-01T01:14:16.266Z,75.35
2018-11-01T01:16:44.929Z,74.80
2018-11-01T01:19:13.544Z,74.72
2018-11-01T01:21:42.204Z,74.46
2018-11-01T01:24:10.835Z,74.19
2018-11-01T01:26:39.465Z,73.47
2018-11-01T01:29:08.137Z,73.21
2018-11-01T01:31:36.753Z,73.69
2018-11-01T01:34:05.980Z,73.16
2018-11-01T01:36:34.675Z,73.37
2018-11-01T01:39:03.490Z,72.78
2018-11-01T01:41:32.110Z,72.82
2018-11-01T01:44:00.724Z,73.36
2018-11-01T01:46:29.311Z,72.38
2018-11-01T01:48:57.901Z,72.16
2018-11-01T01:51:26.512Z,72.67
2018-11-01T01:53:55.126Z,72.23
2018-11-01T01:56:23.732Z,71.38
2018-11-01T01:58:52.376Z,71.58
2018-11-01T02:01:21.001Z,69.86
2018-11-01T02:03:49.631Z,68.06
2018-11-01T02:06:18.278Z,66.83
2018-11-01T02:08:46.903Z,66.27
2018-11-01T02:11:15.567Z,66.08
2018-11-01T02:13:44.227Z,66.35
2018-11-01T02:16:12.861Z,66.02
2018-11-01T02:18:41.654Z,66.17
2018-11-01T02:21:16.569Z,65.76
2018-11-01T02:23:45.193Z,66.04
2018-11-01T02:26:13.811Z,66.08
2018-11-01T02:28:42.469Z,65.29
2018-11-01T02:31:11.101Z,65.50
2018-11-01T02:33:39.748Z,65.20
2018-11-01T02:36:08.494Z,65.74
2018-11-01T02:38:37.164Z,65.34
2018-11-01T02:41:05.730Z,65.77
2018-11-01T02:43:34.329Z,66.31
2018-11-01T02:46:02.968Z,67.18
2018-11-01T02:48:31.600Z,67.17
2018-11-01T02:51:00.248Z,67.13
2018-11-01T02:53:28.881Z,67.56
2018-11-01T02:55:57.522Z,68.15
2018-11-01T02:58:26.187Z,69.03
2018-11-01T03:00:54.848Z,69.10
2018-11-01T03:03:23.484Z,69.61
2018-11-01T03:05:52.104Z,69.89
2018-11-01T03:08:21.218Z,70.51
2018-11-01T03:10:49.866Z,70.90
2018-11-01T03:13:18.512Z,70.78
2018-11-01T03:15:47.156Z,72.01
2018-11-01T03:18:15.792Z,72.27
2018-11-01T03:20:44.406Z,71.81
2018-11-01T03:23:13.125Z,71.91
2018-11-01T03:25:41.725Z,71.93
2018-11-01T03:28:10.370Z,72.31
2018-11-01T03:30:38.971Z,72.19
2018-11-01T03:33:07.573Z,72.18
2018-11-01T03:35:36.284Z,72.00
2018-11-01T03:38:04.896Z,71.26
2018-11-01T03:40:33.676Z,70.86
2018-11-01T03:43:02.379Z,69.89
2018-11-01T03:45:31.051Z,69.40
2018-11-01T03:47:59.597Z,69.82
2018-11-01T03:50:28.224Z,70.22
2018-11-01T03:52:56.848Z,70.28
2018-11-01T03:55:25.738Z,71.01
2018-11-01T03:57:54.338Z,70.82
2018-11-01T04:00:22.928Z,70.87
2018-11-01T04:02:51.600Z,70.86
2018-11-01T04:05:20.211Z,70.77
2018-11-01T04:07:48.838Z,71.39
2018-11-01T04:10:17.567Z,70.54
2018-11-01T04:12:46.239Z,70.54
2018-11-01T04:15:15.428Z,70.12
2018-11-01T04:17:43.977Z,69.35
2018-11-01T04:20:13.545Z,69.25
2018-11-01T04:22:42.793Z,68.80
2018-11-01T04:25:11.452Z,69.09
2018-11-01T04:27:40.085Z,68.75
2018-11-01T04:30:09.182Z,69.46
2018-11-01T04:32:37.772Z,69.80
2018-11-01T04:35:07.113Z,70.11
2018-11-01T04:37:35.782Z,70.99
2018-11-01T04:40:04.490Z,71.05
2018-11-01T04:42:33.124Z,70.47
2018-11-01T04:45:01.743Z,70.61
2018-11-01T04:47:30.393Z,71.25
2018-11-01T04:49:58.987Z,71.39
2018-11-01T04:52:27.654Z,71.47
2018-11-01T04:54:56.279Z,71.22
2018-11-01T04:57:24.892Z,71.17
2018-11-01T04:59:53.539Z,71.15
2018-11-01T05:02:22.191Z,70.90
2018-11-01T05:04:50.850Z,70.30
2018-11-01T05:07:19.463Z,70.30
2018-11-01T05:09:48.080Z,70.88
2018-11-01T05:12:16.724Z,70.41
2018-11-01T05:14:45.348Z,69.59
2018-11-01T05:17:14.005Z,69.81
2018-11-01T05:19:42.625Z,70.01
2018-11-01T05:22:11.340Z,69.60
2018-11-01T05:24:39.989Z,69.83
2018-11-01T05:27:08.637Z,69.74
2018-11-01T05:29:37.283Z,69.33
2018-11-01T05:32:05.868Z,69.07
2018-11-01T05:34:34.533Z,68.84
2018-11-01T05:37:03.166Z,69.05
2018-11-01T05:39:31.770Z,69.31
2018-11-01T05:42:00.424Z,69.46
2018-11-01T05:44:29.261Z,69.88
2018-11-01T05:46:57.882Z,70.66
2018-11-01T05:49:26.530Z,70.53
2018-11-01T05:51:55.157Z,70.89
2018-11-01T05:54:23.862Z,71.09
2018-11-01T05:56:52.480Z,71.26
2018-11-01T05:59:22.054Z,71.04
2018-11-01T06:01:52.650Z,71.50
2018-11-01T06:04:21.295Z,71.55
2018-11-01T06:06:49.974Z,71.46
2018-11-01T06:09:23.794Z,71.71
2018-11-01T06:11:52.446Z,71.35
2018-11-01T06:14:21.053Z,71.51
2018-11-01T06:16:49.970Z,71.48
2018-11-01T06:19:18.590Z,71.47
2018-11-01T06:21:47.220Z,71.26
2018-11-01T06:24:16.179Z,70.76
2018-11-01T06:26:45.449Z,70.77
2018-11-01T06:29:14.107Z,70.85
2018-11-01T06:31:42.745Z,70.43
2018-11-01T06:34:31.462Z,70.18
2018-11-01T06:37:00.368Z,70.06
2018-11-01T06:39:29.015Z,69.16
2018-11-01T06:41:57.626Z,69.19
2018-11-01T06:44:26.323Z,68.67
2018-11-01T06:46:54.889Z,68.46
2018-11-01T06:49:23.549Z,67.76
2018-11-01T06:51:52.217Z,67.94
2018-11-01T06:54:20.898Z,66.90
2018-11-01T06:56:49.594Z,66.02
2018-11-01T06:59:18.400Z,65.65
2018-11-01T07:01:46.801Z,65.32
2018-11-01T07:04:15.437Z,64.30
2018-11-01T07:06:44.050Z,63.67
2018-11-01T07:09:13.923Z,62.73
2018-11-01T07:11:42.908Z,61.65
2018-11-01T07:14:11.589Z,61.17
2018-11-01T07:16:40.278Z,60.98
2018-11-01T07:19:09.835Z,60.46
2018-11-01T07:21:38.808Z,59.92
2018-11-01T07:24:07.447Z,59.70
2018-11-01T07:26:36.157Z,59.44
2018-11-01T07:29:04.734Z,58.99
2018-11-01T07:31:33.419Z,59.13
2018-11-01T07:34:02.059Z,60.04
2018-11-01T07:36:30.758Z,60.42
2018-11-01T07:38:59.360Z,60.90
2018-11-01T07:41:28.018Z,60.58
2018-11-01T07:43:56.675Z,59.99
2018-11-01T07:46:25.321Z,60.12
2018-11-01T07:48:53.956Z,59.49
2018-11-01T07:51:22.610Z,59.07
2018-11-01T07:53:51.219Z,58.82
2018-11-01T07:56:20.118Z,59.08
2018-11-01T07:58:48.806Z,58.90
2018-11-01T08:01:17.429Z,58.45
2018-11-01T08:03:46.082Z,58.90
2018-11-01T08:06:14.786Z,59.69
2018-11-01T08:08:43.406Z,60.06
2018-11-01T08:11:12.162Z,60.81
2018-11-01T08:13:40.810Z,60.59
2018-11-01T08:16:09.561Z,61.36
2018-11-01T08:18:38.378Z,60.92
2018-11-01T08:21:07.322Z,60.79
2018-11-01T08:23:36.066Z,61.06
2018-11-01T08:26:04.771Z,60.07
2018-11-01T08:28:33.446Z,60.28
2018-11-01T08:31:02.125Z,60.07
2018-11-01T08:33:37.973Z,59.71
2018-11-01T08:36:06.888Z,59.77
2018-11-01T08:38:35.782Z,59.18
2018-11-01T08:41:04.533Z,59.43
2018-11-01T08:43:33.280Z,58.64
2018-11-01T08:46:02.099Z,58.76
2018-11-01T08:48:31.154Z,58.43
2018-11-01T08:50:59.887Z,57.50
2018-11-01T08:53:34.908Z,57.33
2018-11-01T08:56:06.417Z,57.17
2018-11-01T08:58:35.168Z,56.37
2018-11-01T09:01:04.272Z,56.59
2018-11-01T09:03:33.150Z,55.96
2018-11-01T09:06:01.915Z,56.09
2018-11-01T09:08:30.711Z,56.01
2018-11-01T09:10:59.630Z,55.97
2018-11-01T09:13:28.431Z,55.81
2018-11-01T09:15:57.123Z,56.43
2018-11-01T09:18:25.895Z,56.11
2018-11-01T09:20:54.712Z,56.08
2018-11-01T09:23:23.643Z,56.12
2018-11-01T09:25:52.571Z,55.00
2018-11-01T09:28:21.454Z,55.01
2018-11-01T09:30:50.299Z,53.99
2018-11-01T09:33:25.867Z,54.26
2018-11-01T09:35:54.646Z,54.05
2018-11-01T09:38:23.392Z,54.19
2018-11-01T09:40:52.205Z,54.48
2018-11-01T09:43:20.845Z,54.72
2018-11-01T09:45:49.511Z,54.09
2018-11-01T09:48:18.158Z,53.90
2018-11-01T09:50:46.796Z,53.11
2018-11-01T09:53:15.459Z,52.32
2018-11-01T09:55:44.287Z,52.13
2018-11-01T09:58:12.858Z,52.48
2018-11-01T10:00:41.919Z,52.31
2018-11-01T10:03:10.611Z,52.34
2018-11-01T10:05:39.373Z,51.70
2018-11-01T10:08:08.078Z,51.78
2018-11-01T10:10:37.012Z,52.15
2018-11-01T10:13:05.754Z,51.15
2018-11-01T10:15:34.593Z,51.47
2018-11-01T10:18:03.673Z,51.53
2018-11-01T10:20:31.917Z,50.71
2018-11-01T10:23:00.730Z,51.04
2018-11-01T10:25:29.500Z,51.18
2018-11-01T10:27:58.349Z,50.24
2018-11-01T10:30:27.073Z,50.34
2018-11-01T10:32:56.151Z,50.03
2018-11-01T10:35:24.891Z,49.53
2018-11-01T10:37:53.674Z,48.90
2018-11-01T10:40:22.504Z,48.99
2018-11-01T10:42:51.238Z,48.82
2018-11-01T10:45:19.910Z,48.22
2018-11-01T10:47:48.770Z,48.42
2018-11-01T10:50:18.803Z,48.51
2018-11-01T10:52:47.684Z,48.80
2018-11-01T10:55:16.983Z,48.35
2018-11-01T10:57:45.812Z,49.15
2018-11-01T11:00:19.754Z,48.75
2018-11-01T11:02:49.736Z,48.63
2018-11-01T11:05:20.068Z,48.30
2018-11-01T11:07:49.264Z,48.20
2018-11-01T11:10:18.774Z,48.09
2018-11-01T11:12:47.624Z,48.45
2018-11-01T11:15:16.496Z,48.30
2018-11-01T11:17:45.287Z,47.14
2018-11-01T11:20:14.256Z,47.38
2018-11-01T11:22:42.852Z,47.26
2018-11-01T11:25:12.542Z,46.59
2018-11-01T11:27:41.466Z,47.10
2018-11-01T11:30:11.680Z,46.47
2018-11-01T11:32:40.993Z,46.33
2018-11-01T11:35:10.671Z,46.91
2018-11-01T11:37:39.396Z,46.57
2018-11-01T11:40:09.646Z,46.65
2018-11-01T11:42:38.494Z,46.61
2018-11-01T11:45:08.042Z,46.50
2018-11-01T11:47:36.772Z,45.94
2018-11-01T11:50:06.301Z,45.57
2018-11-01T11:52:35.019Z,46.71
2018-11-01T11:55:03.660Z,46.63
2018-11-01T11:57:33.109Z,47.10
2018-11-01T12:00:01.802Z,47.09
2018-11-01T12:02:30.667Z,47.14
2018-11-01T12:04:59.346Z,46.55
2018-11-01T12:07:28.029Z,46.08
2018-11-01T12:09:56.738Z,45.47
2018-11-01T12:12:30.605Z,44.62
2018-11-01T12:14:59.387Z,44.71
2018-11-01T12:17:28.162Z,43.99
2018-11-01T12:20:00.071Z,43.95
2018-11-01T12:22:28.981Z,44.14
2018-11-01T12:24:57.813Z,44.46
2018-11-01T12:27:26.656Z,44.17
2018-11-01T12:29:55.418Z,44.58
2018-11-01T12:32:24.270Z,44.48
2018-11-01T12:34:53.090Z,44.97
2018-11-01T12:37:21.869Z,45.40
2018-11-01T12:39:54.100Z,45.43
2018-11-01T12:42:23.280Z,45.15
2018-11-01T12:44:52.486Z,45.06
2018-11-01T12:47:21.238Z,45.32
2018-11-01T12:49:50.724Z,45.24
2018-11-01T12:52:19.856Z,45.09
2018-11-01T12:54:48.603Z,45.82
2018-11-01T12:57:17.552Z,46.25
2018-11-01T12:59:46.423Z,46.49
2018-11-01T13:02:18.269Z,46.49
2018-11-01T13:04:47.769Z,46.31
2018-11-01T13:07:17.751Z,46.50
2018-11-01T13:09:46.944Z,46.34
2018-11-01T13:12:15.639Z,46.48
2018-11-01T13:14:46.935Z,46.09
2018-11-01T13:17:17.419Z,46.44
2018-11-01T13:19:46.315Z,47.12
2018-11-01T13:22:15.065Z,47.06
2018-11-01T13:24:43.990Z,47.90
2018-11-01T13:27:12.903Z,48.08
2018-11-01T13:29:41.704Z,48.28
2018-11-01T13:32:10.627Z,48.92
2018-11-01T13:34:39.636Z,49.10
2018-11-01T13:37:08.483Z,48.93
2018-11-01T13:39:37.352Z,48.40
2018-11-01T13:42:06.306Z,48.19
2018-11-01T13:44:35.078Z,49.31
2018-11-01T13:47:04.290Z,48.86
2018-11-01T13:49:32.966Z,48.92
2018-11-01T13:52:01.799Z,49.56
2018-11-01T13:54:30.857Z,49.88
2018-11-01T13:56:59.594Z,50.21
2018-11-01T13:59:28.481Z,51.01
2018-11-01T14:01:57.507Z,51.08
2018-11-01T14:04:26.353Z,50.97
2018-11-01T14:06:55.062Z,51.47
2018-11-01T14:09:23.801Z,52.06
2018-11-01T14:11:52.647Z,51.83
2018-11-01T14:14:22.029Z,52.85
2018-11-01T14:16:50.589Z,52.66
2018-11-01T14:19:19.257Z,52.84
2018-11-01T14:21:48.091Z,53.26
2018-11-01T14:24:16.976Z,53.13
2018-11-01T14:26:45.918Z,53.16
2018-11-01T14:29:14.755Z,53.16
2018-11-01T14:31:43.590Z,53.23
2018-11-01T14:34:12.365Z,52.22
2018-11-01T14:36:41.274Z,51.83
2018-11-01T14:39:12.567Z,51.38
2018-11-01T14:41:41.445Z,50.29
2018-11-01T14:44:10.208Z,49.94
2018-11-01T14:46:44.422Z,49.96
2018-11-01T14:49:13.235Z,49.08
2018-11-01T14:51:42.049Z,49.73
2018-11-01T14:54:11.691Z,50.25
2018-11-01T14:56:41.112Z,50.59
2018-11-01T14:59:10.270Z,51.16
2018-11-01T15:01:37.529Z,51.73
2018-11-01T15:04:06.224Z,52.76
2018-11-01T15:06:34.933Z,53.27
2018-11-01T15:09:05.495Z,53.05
2018-11-01T15:11:34.333Z,54.27
2018-11-01T15:14:03.087Z,54.62
2018-11-01T15:16:31.878Z,54.93
2018-11-01T15:19:01.841Z,54.83
2018-11-01T15:21:30.528Z,55.01
2018-11-01T15:23:59.238Z,55.59
2018-11-01T15:26:27.869Z,56.16
2018-11-01T15:28:56.514Z,56.12
2018-11-01T15:31:25.170Z,55.78
2018-11-01T15:33:53.820Z,56.04
2018-11-01T15:36:22.510Z,56.16
2018-11-01T15:38:51.206Z,57.10
2018-11-01T15:41:20.769Z,57.34
2018-11-01T15:43:49.490Z,57.31
2018-11-01T15:46:18.658Z,57.38
2018-11-01T15:48:47.405Z,57.45
2018-11-01T15:51:16.181Z,57.70
2018-11-01T15:53:45.178Z,57.79
2018-11-01T15:56:14.178Z,57.76
2018-11-01T15:58:42.982Z,57.45
2018-11-01T16:01:12.108Z,57.94
2018-11-01T16:03:40.886Z,57.90
2018-11-01T16:06:09.748Z,57.92
2018-11-01T16:08:38.503Z,57.36
2018-11-01T16:11:07.227Z,57.72
2018-11-01T16:13:35.947Z,57.21
2018-11-01T16:16:04.847Z,57.06
2018-11-01T16:18:33.576Z,57.35
2018-11-01T16:21:02.336Z,57.21
2018-11-01T16:23:31.046Z,57.84
2018-11-01T16:25:59.967Z,57.54
2018-11-01T16:28:28.857Z,58.03
2018-11-01T16:30:57.509Z,58.13
2018-11-01T16:33:26.251Z,58.44
2018-11-01T16:35:54.911Z,59.08
2018-11-01T16:38:23.590Z,59.51
2018-11-01T16:40:52.273Z,59.32
2018-11-01T16:43:22.480Z,59.97
2018-11-01T16:45:51.196Z,60.56
2018-11-01T16:48:20.294Z,60.46
2018-11-01T16:50:48.946Z,60.74
2018-11-01T16:53:18.254Z,60.90
2018-11-01T16:55:46.909Z,61.88
2018-11-01T16:58:15.643Z,61.48
2018-11-01T17:00:44.343Z,61.55
2018-11-01T17:03:13.123Z,61.74
2018-11-01T17:05:42.533Z,61.94
2018-11-01T17:08:11.416Z,62.05
2018-11-01T17:10:40.722Z,62.15
2018-11-01T17:13:09.756Z,62.13
2018-11-01T17:15:38.687Z,62.08
2018-11-01T17:18:07.560Z,62.31
2018-11-01T17:20:36.432Z,62.90
2018-11-01T17:23:05.350Z,62.95
2018-11-01T17:25:34.279Z,62.97
2018-11-01T17:28:03.101Z,62.62
2018-11-01T17:30:31.904Z,62.57
2018-11-01T17:33:00.847Z,62.69
2018-11-01T17:35:29.552Z,62.65
2018-11-01T17:37:58.246Z,62.74
2018-11-01T17:40:26.957Z,63.03
2018-11-01T17:42:55.705Z,63.52
2018-11-01T17:45:24.582Z,63.24
2018-11-01T17:47:53.259Z,62.92
2018-11-01T17:50:22.323Z,62.67
2018-11-01T17:52:51.568Z,63.03
2018-11-01T17:55:20.539Z,62.61
2018-11-01T17:57:49.603Z,63.39
2018-11-01T18:00:19.208Z,62.72
2018-11-01T18:02:48.153Z,63.07
2018-11-01T18:05:16.947Z,63.05
2018-11-01T18:07:45.821Z,63.32
2018-11-01T18:10:14.675Z,63.39
2018-11-01T18:12:43.483Z,62.77
2018-11-01T18:15:12.202Z,62.70
2018-11-01T18:17:40.912Z,62.49
2018-11-01T18:20:11.189Z,61.99
2018-11-01T18:22:40.001Z,62.31
2018-11-01T18:25:10.359Z,62.04
2018-11-01T18:27:39.087Z,61.72
2018-11-01T18:30:10.026Z,61.53
2018-11-01T18:32:39.045Z,62.11
2018-11-01T18:35:08.532Z,62.37
2018-11-01T18:37:37.290Z,62.19
2018-11-01T18:40:06.612Z,62.64
2018-11-01T18:42:35.423Z,62.62
2018-11-01T18:45:04.264Z,62.49
2018-11-01T18:47:33.664Z,62.45
2018-11-01T18:50:02.561Z,62.61
2018-11-01T18:52:32.759Z,63.00
2018-11-01T18:55:01.549Z,62.80
2018-11-01T18:57:30.499Z,63.61
2018-11-01T18:59:59.397Z,63.36
2018-11-01T19:02:28.598Z,63.27
2018-11-01T19:04:57.352Z,63.91
2018-11-01T19:07:26.250Z,63.79
2018-11-01T19:09:54.915Z,64.57
2018-11-01T19:12:23.614Z,64.41
2018-11-01T19:14:52.317Z,64.66
2018-11-01T19:19:55.016Z,65.58
2018-11-01T19:22:23.888Z,66.17
2018-11-01T19:24:52.578Z,66.59
2018-11-01T19:27:21.844Z,67.25
2018-11-01T19:29:50.332Z,68.07
2018-11-01T19:32:19.138Z,68.14
2018-11-01T19:34:47.897Z,68.23
2018-11-01T19:37:16.812Z,67.10
2018-11-01T19:39:45.746Z,67.78
2018-11-01T19:42:14.648Z,68.02
2018-11-01T19:44:43.484Z,68.08
2018-11-01T19:47:12.324Z,68.38
2018-11-01T19:49:41.215Z,68.46
2018-11-01T19:52:09.876Z,68.38
2018-11-01T19:54:38.617Z,69.31
2018-11-01T19:57:07.290Z,68.94
2018-11-01T19:59:35.976Z,69.73
2018-11-01T20:02:04.658Z,69.97
2018-11-01T20:04:33.362Z,70.61
2018-11-01T20:07:02.096Z,70.63
2018-11-01T20:09:30.771Z,70.44
2018-11-01T20:11:59.439Z,70.73
2018-11-01T20:14:28.475Z,71.00
2018-11-01T20:16:57.127Z,70.53
2018-11-01T20:19:25.820Z,69.98
2018-11-01T20:21:54.446Z,70.44
2018-11-01T20:24:23.046Z,70.74
2018-11-01T20:26:51.676Z,70.68
2018-11-01T20:29:20.357Z,70.63
2018-11-01T20:31:55.792Z,70.91
2018-11-01T20:34:25.059Z,71.27
2018-11-01T20:36:53.713Z,71.22
2018-11-01T20:39:23.300Z,71.86
2018-11-01T20:41:52.031Z,71.77
2018-11-01T20:44:20.807Z,71.49
2018-11-01T20:46:49.542Z,72.07
2018-11-01T20:49:18.221Z,72.21
2018-11-01T20:51:46.825Z,71.73
2018-11-01T20:54:15.593Z,71.85
2018-11-01T20:56:44.313Z,72.25
2018-11-01T20:59:13.013Z,71.99
2018-11-01T21:01:41.701Z,71.75
2018-11-01T21:04:10.786Z,72.08
2018-11-01T21:06:39.569Z,72.80
2018-11-01T21:09:10.889Z,72.06
2018-11-01T21:11:40.009Z,72.95
2018-11-01T21:14:08.646Z,72.38
2018-11-01T21:16:37.972Z,72.21
2018-11-01T21:19:07.768Z,72.79
2018-11-01T21:21:39.757Z,72.89
2018-11-01T21:24:08.521Z,73.61
2018-11-01T21:26:37.346Z,73.56
2018-11-01T21:29:06.228Z,74.04
2018-11-01T21:31:34.862Z,74.15
2018-11-01T21:34:03.640Z,74.06
2018-11-01T21:36:32.432Z,73.92
2018-11-01T21:39:02.284Z,74.59
2018-11-01T21:41:31.342Z,74.79
2018-11-01T21:44:00.269Z,74.94
2018-11-01T21:46:29.553Z,75.17
2018-11-01T21:48:58.663Z,74.64
2018-11-01T21:51:27.707Z,74.99
2018-11-01T21:53:57.425Z,75.67
2018-11-01T21:56:26.182Z,76.15
2018-11-01T21:58:54.998Z,75.93
2018-11-01T22:01:23.715Z,75.96
2018-11-01T22:03:52.394Z,75.86
2018-11-01T22:06:21.457Z,76.37
2018-11-01T22:08:50.128Z,75.80
2018-11-01T22:11:19.043Z,75.55
2018-11-01T22:13:47.730Z,76.25
2018-11-01T22:16:16.604Z,76.31
2018-11-01T22:18:45.438Z,76.98
2018-11-01T22:21:14.506Z,77.27
2018-11-01T22:23:43.222Z,77.34
2018-11-01T22:26:11.917Z,77.36
2018-11-01T22:28:41.081Z,77.58
2018-11-01T22:31:09.768Z,77.79
2018-11-01T22:33:38.534Z,78.68
2018-11-01T22:36:07.373Z,78.23
2018-11-01T22:38:36.270Z,78.43
2018-11-01T22:41:04.917Z,78.73
2018-11-01T22:43:33.661Z,78.04
2018-11-01T22:46:02.353Z,78.66
2018-11-01T22:48:31.142Z,78.10
2018-11-01T22:50:59.895Z,79.04
2018-11-01T22:53:34.014Z,78.93
2018-11-01T22:56:02.625Z,79.58
2018-11-01T22:58:31.750Z,79.31
2018-11-01T23:01:00.427Z,79.05
2018-11-01T23:03:29.238Z,79.37
2018-11-01T23:05:57.860Z,79.74
2018-11-01T23:08:26.467Z,79.76
2018-11-01T23:10:55.278Z,80.27
2018-11-01T23:13:23.891Z,81.05
2018-11-01T23:15:52.644Z,81.21
2018-11-01T23:18:21.283Z,81.38
2018-11-01T23:20:49.981Z,81.82
2018-11-01T23:23:18.594Z,82.31
2018-11-01T23:25:47.249Z,82.53
2018-11-01T23:28:15.838Z,83.01
2018-11-01T23:30:49.769Z,83.20
2018-11-01T23:33:18.366Z,84.01
2018-11-01T23:35:47.060Z,84.50
2018-11-01T23:38:20.905Z,84.42
2018-11-01T23:40:54.555Z,85.11
2018-11-01T23:43:28.264Z,85.50
2018-11-01T23:46:01.989Z,85.65
2018-11-01T23:48:29.683Z,85.86
2018-11-01T23:51:02.359Z,85.61
2018-11-01T23:53:32.506Z,85.49
2018-11-01T23:56:01.126Z,84.68
2018-11-01T23:58:29.744Z,84.83
